sensor_id;sensor_type;location;lat;lon;timestamp;temperature;humidity
44559;DHT22;30270;40.238;18.256;2022-07-22T00:00:32;27.80;91.20
44559;DHT22;30270;40.238;18.256;2022-07-22T00:03:00;27.80;91.00
44559;DHT22;30270;40.238;18.256;2022-07-22T00:05:27;27.80;90.70
44559;DHT22;30270;40.238;18.256;2022-07-22T00:07:55;27.80;90.50
44559;DHT22;30270;40.238;18.256;2022-07-22T00:10:22;27.70;90.30
44559;DHT22;30270;40.238;18.256;2022-07-22T00:12:50;27.80;90.30
44559;DHT22;30270;40.238;18.256;2022-07-22T00:15:18;27.70;90.20
44559;DHT22;30270;40.238;18.256;2022-07-22T00:17:45;27.70;90.10
44559;DHT22;30270;40.238;18.256;2022-07-22T00:20:13;27.70;90.00
44559;DHT22;30270;40.238;18.256;2022-07-22T00:22:41;27.60;89.80
44559;DHT22;30270;40.238;18.256;2022-07-22T00:25:09;27.60;89.60
44559;DHT22;30270;40.238;18.256;2022-07-22T00:27:37;27.60;89.40
44559;DHT22;30270;40.238;18.256;2022-07-22T00:30:05;27.60;89.10
44559;DHT22;30270;40.238;18.256;2022-07-22T00:32:33;27.50;88.70
44559;DHT22;30270;40.238;18.256;2022-07-22T00:35:00;27.50;88.30
44559;DHT22;30270;40.238;18.256;2022-07-22T00:37:28;27.50;88.00
44559;DHT22;30270;40.238;18.256;2022-07-22T00:39:55;27.50;87.60
44559;DHT22;30270;40.238;18.256;2022-07-22T00:42:23;27.50;87.20
44559;DHT22;30270;40.238;18.256;2022-07-22T00:44:51;27.50;86.80
44559;DHT22;30270;40.238;18.256;2022-07-22T00:47:22;27.50;86.40
44559;DHT22;30270;40.238;18.256;2022-07-22T00:49:50;27.50;85.80
44559;DHT22;30270;40.238;18.256;2022-07-22T00:52:21;27.50;85.30
44559;DHT22;30270;40.238;18.256;2022-07-22T00:54:51;27.50;84.80
44559;DHT22;30270;40.238;18.256;2022-07-22T00:57:19;27.50;84.40
44559;DHT22;30270;40.238;18.256;2022-07-22T00:59:46;27.50;83.90
44559;DHT22;30270;40.238;18.256;2022-07-22T01:02:14;27.50;83.60
44559;DHT22;30270;40.238;18.256;2022-07-22T01:04:42;27.40;83.40
44559;DHT22;30270;40.238;18.256;2022-07-22T01:07:13;27.50;83.30
44559;DHT22;30270;40.238;18.256;2022-07-22T01:09:45;27.40;82.70
44559;DHT22;30270;40.238;18.256;2022-07-22T01:12:12;27.40;81.70
44559;DHT22;30270;40.238;18.256;2022-07-22T01:14:40;27.40;81.10
44559;DHT22;30270;40.238;18.256;2022-07-22T01:17:08;27.40;80.70
44559;DHT22;30270;40.238;18.256;2022-07-22T01:19:36;27.40;80.10
44559;DHT22;30270;40.238;18.256;2022-07-22T01:22:05;27.40;79.40
44559;DHT22;30270;40.238;18.256;2022-07-22T01:24:33;27.50;78.90
44559;DHT22;30270;40.238;18.256;2022-07-22T01:27:01;27.40;78.40
44559;DHT22;30270;40.238;18.256;2022-07-22T01:29:29;27.50;77.70
44559;DHT22;30270;40.238;18.256;2022-07-22T01:31:56;27.50;77.10
44559;DHT22;30270;40.238;18.256;2022-07-22T01:34:24;27.50;76.70
44559;DHT22;30270;40.238;18.256;2022-07-22T01:36:52;27.50;76.10
44559;DHT22;30270;40.238;18.256;2022-07-22T01:39:20;27.50;75.80
44559;DHT22;30270;40.238;18.256;2022-07-22T01:41:48;27.50;75.30
44559;DHT22;30270;40.238;18.256;2022-07-22T01:44:16;27.50;75.00
44559;DHT22;30270;40.238;18.256;2022-07-22T01:46:44;27.50;74.40
44559;DHT22;30270;40.238;18.256;2022-07-22T01:49:11;27.50;73.90
44559;DHT22;30270;40.238;18.256;2022-07-22T01:51:39;27.50;73.40
44559;DHT22;30270;40.238;18.256;2022-07-22T01:54:07;27.40;73.30
44559;DHT22;30270;40.238;18.256;2022-07-22T01:56:37;27.50;73.10
44559;DHT22;30270;40.238;18.256;2022-07-22T01:59:05;27.50;72.80
44559;DHT22;30270;40.238;18.256;2022-07-22T02:01:34;27.50;72.40
44559;DHT22;30270;40.238;18.256;2022-07-22T02:04:02;27.50;72.00
44559;DHT22;30270;40.238;18.256;2022-07-22T02:06:30;27.50;71.70
44559;DHT22;30270;40.238;18.256;2022-07-22T02:08:58;27.50;71.20
44559;DHT22;30270;40.238;18.256;2022-07-22T02:11:48;27.50;71.20
44559;DHT22;30270;40.238;18.256;2022-07-22T02:14:17;27.60;71.20
44559;DHT22;30270;40.238;18.256;2022-07-22T02:16:45;27.50;71.20
44559;DHT22;30270;40.238;18.256;2022-07-22T02:19:13;27.50;71.30
44559;DHT22;30270;40.238;18.256;2022-07-22T02:21:41;27.50;71.70
44559;DHT22;30270;40.238;18.256;2022-07-22T02:24:08;27.60;71.90
44559;DHT22;30270;40.238;18.256;2022-07-22T02:26:36;27.60;72.30
44559;DHT22;30270;40.238;18.256;2022-07-22T02:29:03;27.60;72.50
44559;DHT22;30270;40.238;18.256;2022-07-22T02:31:31;27.50;72.50
44559;DHT22;30270;40.238;18.256;2022-07-22T02:34:06;27.50;72.70
44559;DHT22;30270;40.238;18.256;2022-07-22T02:36:34;27.50;72.80
44559;DHT22;30270;40.238;18.256;2022-07-22T02:39:03;27.50;73.00
44559;DHT22;30270;40.238;18.256;2022-07-22T02:41:31;27.50;73.10
44559;DHT22;30270;40.238;18.256;2022-07-22T02:44:00;27.40;72.90
44559;DHT22;30270;40.238;18.256;2022-07-22T02:46:28;27.40;72.80
44559;DHT22;30270;40.238;18.256;2022-07-22T02:49:04;27.30;72.40
44559;DHT22;30270;40.238;18.256;2022-07-22T02:51:32;27.30;72.00
44559;DHT22;30270;40.238;18.256;2022-07-22T02:54:00;27.30;71.50
44559;DHT22;30270;40.238;18.256;2022-07-22T02:56:27;27.40;71.00
44559;DHT22;30270;40.238;18.256;2022-07-22T02:58:55;27.40;70.60
44559;DHT22;30270;40.238;18.256;2022-07-22T03:01:23;27.40;70.20
44559;DHT22;30270;40.238;18.256;2022-07-22T03:03:56;27.40;69.90
44559;DHT22;30270;40.238;18.256;2022-07-22T03:06:25;27.40;69.50
44559;DHT22;30270;40.238;18.256;2022-07-22T03:09:15;27.50;69.30
44559;DHT22;30270;40.238;18.256;2022-07-22T03:11:45;27.50;69.10
44559;DHT22;30270;40.238;18.256;2022-07-22T03:14:12;27.50;69.10
44559;DHT22;30270;40.238;18.256;2022-07-22T03:16:40;27.50;68.80
44559;DHT22;30270;40.238;18.256;2022-07-22T03:19:08;27.40;68.70
44559;DHT22;30270;40.238;18.256;2022-07-22T03:21:36;27.50;68.70
44559;DHT22;30270;40.238;18.256;2022-07-22T03:24:03;27.40;68.50
44559;DHT22;30270;40.238;18.256;2022-07-22T03:26:32;27.50;68.50
44559;DHT22;30270;40.238;18.256;2022-07-22T03:29:00;27.40;68.50
44559;DHT22;30270;40.238;18.256;2022-07-22T03:31:28;27.40;68.50
44559;DHT22;30270;40.238;18.256;2022-07-22T03:33:57;27.40;68.50
44559;DHT22;30270;40.238;18.256;2022-07-22T03:36:28;27.40;68.30
44559;DHT22;30270;40.238;18.256;2022-07-22T03:38:57;27.40;68.10
44559;DHT22;30270;40.238;18.256;2022-07-22T03:41:25;27.40;67.90
44559;DHT22;30270;40.238;18.256;2022-07-22T03:43:53;27.40;67.80
44559;DHT22;30270;40.238;18.256;2022-07-22T03:46:20;27.30;67.40
44559;DHT22;30270;40.238;18.256;2022-07-22T03:48:49;27.30;67.20
44559;DHT22;30270;40.238;18.256;2022-07-22T03:51:18;27.30;67.20
44559;DHT22;30270;40.238;18.256;2022-07-22T03:53:46;27.40;67.20
44559;DHT22;30270;40.238;18.256;2022-07-22T03:56:13;27.40;67.00
44559;DHT22;30270;40.238;18.256;2022-07-22T03:58:41;27.40;66.60
44559;DHT22;30270;40.238;18.256;2022-07-22T04:01:09;27.50;66.80
44559;DHT22;30270;40.238;18.256;2022-07-22T04:03:40;27.50;66.80
44559;DHT22;30270;40.238;18.256;2022-07-22T04:06:24;27.50;66.80
44559;DHT22;30270;40.238;18.256;2022-07-22T04:08:59;27.60;67.20
44559;DHT22;30270;40.238;18.256;2022-07-22T04:11:28;27.60;67.20
44559;DHT22;30270;40.238;18.256;2022-07-22T04:13:56;27.70;67.50
44559;DHT22;30270;40.238;18.256;2022-07-22T04:16:23;27.70;67.60
44559;DHT22;30270;40.238;18.256;2022-07-22T04:18:58;27.80;67.90
44559;DHT22;30270;40.238;18.256;2022-07-22T04:21:39;27.80;68.20
44559;DHT22;30270;40.238;18.256;2022-07-22T04:24:10;27.90;68.70
44559;DHT22;30270;40.238;18.256;2022-07-22T04:26:40;28.00;69.20
44559;DHT22;30270;40.238;18.256;2022-07-22T04:29:08;28.00;69.60
44559;DHT22;30270;40.238;18.256;2022-07-22T04:31:35;28.10;69.90
44559;DHT22;30270;40.238;18.256;2022-07-22T04:34:12;28.20;69.90
44559;DHT22;30270;40.238;18.256;2022-07-22T04:36:39;28.30;70.20
44559;DHT22;30270;40.238;18.256;2022-07-22T04:39:08;28.40;70.40
44559;DHT22;30270;40.238;18.256;2022-07-22T04:41:41;28.50;70.60
44559;DHT22;30270;40.238;18.256;2022-07-22T04:44:13;28.60;71.10
44559;DHT22;30270;40.238;18.256;2022-07-22T04:46:41;28.70;70.80
44559;DHT22;30270;40.238;18.256;2022-07-22T04:49:09;28.90;71.10
44559;DHT22;30270;40.238;18.256;2022-07-22T04:51:36;28.90;71.30
44559;DHT22;30270;40.238;18.256;2022-07-22T04:54:08;29.00;71.70
44559;DHT22;30270;40.238;18.256;2022-07-22T04:56:39;29.10;72.50
44559;DHT22;30270;40.238;18.256;2022-07-22T04:59:07;29.30;73.10
44559;DHT22;30270;40.238;18.256;2022-07-22T05:01:36;29.40;73.50
44559;DHT22;30270;40.238;18.256;2022-07-22T05:04:04;29.50;73.70
44559;DHT22;30270;40.238;18.256;2022-07-22T05:06:32;29.60;73.60
44559;DHT22;30270;40.238;18.256;2022-07-22T05:09:01;29.70;73.80
44559;DHT22;30270;40.238;18.256;2022-07-22T05:11:30;29.80;73.80
44559;DHT22;30270;40.238;18.256;2022-07-22T05:13:58;29.90;73.90
44559;DHT22;30270;40.238;18.256;2022-07-22T05:16:26;30.10;74.30
44559;DHT22;30270;40.238;18.256;2022-07-22T05:18:53;30.10;74.50
44559;DHT22;30270;40.238;18.256;2022-07-22T05:21:21;30.30;75.00
44559;DHT22;30270;40.238;18.256;2022-07-22T05:23:49;30.40;75.20
44559;DHT22;30270;40.238;18.256;2022-07-22T05:26:17;30.50;75.50
44559;DHT22;30270;40.238;18.256;2022-07-22T05:28:46;30.60;75.60
44559;DHT22;30270;40.238;18.256;2022-07-22T05:31:14;30.70;75.60
44559;DHT22;30270;40.238;18.256;2022-07-22T05:33:42;30.80;75.70
44559;DHT22;30270;40.238;18.256;2022-07-22T05:36:31;30.90;75.70
44559;DHT22;30270;40.238;18.256;2022-07-22T05:38:58;31.00;75.10
44559;DHT22;30270;40.238;18.256;2022-07-22T05:41:27;31.10;74.40
44559;DHT22;30270;40.238;18.256;2022-07-22T05:43:55;31.20;73.90
44559;DHT22;30270;40.238;18.256;2022-07-22T05:46:23;31.30;73.60
44559;DHT22;30270;40.238;18.256;2022-07-22T05:48:50;31.40;73.40
44559;DHT22;30270;40.238;18.256;2022-07-22T05:51:18;31.60;73.10
44559;DHT22;30270;40.238;18.256;2022-07-22T05:53:47;31.60;73.10
44559;DHT22;30270;40.238;18.256;2022-07-22T05:56:15;31.80;72.20
44559;DHT22;30270;40.238;18.256;2022-07-22T05:58:43;31.90;71.90
44559;DHT22;30270;40.238;18.256;2022-07-22T06:01:12;32.10;71.40
44559;DHT22;30270;40.238;18.256;2022-07-22T06:03:41;32.10;70.40
44559;DHT22;30270;40.238;18.256;2022-07-22T06:06:12;32.20;69.60
44559;DHT22;30270;40.238;18.256;2022-07-22T06:08:41;32.40;68.80
44559;DHT22;30270;40.238;18.256;2022-07-22T06:11:10;32.50;67.90
44559;DHT22;30270;40.238;18.256;2022-07-22T06:13:39;32.60;67.20
44559;DHT22;30270;40.238;18.256;2022-07-22T06:16:07;32.70;67.10
44559;DHT22;30270;40.238;18.256;2022-07-22T06:18:38;32.90;67.10
44559;DHT22;30270;40.238;18.256;2022-07-22T06:21:05;33.00;67.00
44559;DHT22;30270;40.238;18.256;2022-07-22T06:23:36;33.10;66.40
44559;DHT22;30270;40.238;18.256;2022-07-22T06:26:04;33.20;65.80
44559;DHT22;30270;40.238;18.256;2022-07-22T06:28:34;33.30;64.70
44559;DHT22;30270;40.238;18.256;2022-07-22T06:31:03;33.30;63.50
44559;DHT22;30270;40.238;18.256;2022-07-22T06:33:30;33.30;63.20
44559;DHT22;30270;40.238;18.256;2022-07-22T06:36:01;33.50;63.10
44559;DHT22;30270;40.238;18.256;2022-07-22T06:38:30;33.60;62.60
44559;DHT22;30270;40.238;18.256;2022-07-22T06:41:12;33.50;62.10
44559;DHT22;30270;40.238;18.256;2022-07-22T06:43:52;33.60;62.10
44559;DHT22;30270;40.238;18.256;2022-07-22T06:46:45;33.70;62.10
44559;DHT22;30270;40.238;18.256;2022-07-22T06:49:12;33.80;62.50
44559;DHT22;30270;40.238;18.256;2022-07-22T06:51:41;33.90;62.80
44559;DHT22;30270;40.238;18.256;2022-07-22T06:54:09;33.90;62.10
44559;DHT22;30270;40.238;18.256;2022-07-22T06:56:36;34.00;62.50
44559;DHT22;30270;40.238;18.256;2022-07-22T06:59:05;34.00;62.30
44559;DHT22;30270;40.238;18.256;2022-07-22T07:01:33;33.90;61.30
44559;DHT22;30270;40.238;18.256;2022-07-22T07:04:03;34.10;61.80
44559;DHT22;30270;40.238;18.256;2022-07-22T07:06:31;34.20;63.50
44559;DHT22;30270;40.238;18.256;2022-07-22T07:09:06;34.30;62.10
44559;DHT22;30270;40.238;18.256;2022-07-22T07:11:36;34.50;61.90
44559;DHT22;30270;40.238;18.256;2022-07-22T07:14:11;34.60;61.80
44559;DHT22;30270;40.238;18.256;2022-07-22T07:16:39;34.70;61.60
44559;DHT22;30270;40.238;18.256;2022-07-22T07:19:08;34.70;59.90
44559;DHT22;30270;40.238;18.256;2022-07-22T07:21:36;34.80;60.30
44559;DHT22;30270;40.238;18.256;2022-07-22T07:24:04;34.90;60.80
44559;DHT22;30270;40.238;18.256;2022-07-22T07:26:32;34.70;59.70
44559;DHT22;30270;40.238;18.256;2022-07-22T07:29:00;34.60;59.60
44559;DHT22;30270;40.238;18.256;2022-07-22T07:31:32;34.60;59.80
44559;DHT22;30270;40.238;18.256;2022-07-22T07:34:03;34.50;59.60
44559;DHT22;30270;40.238;18.256;2022-07-22T07:36:31;34.60;60.10
44559;DHT22;30270;40.238;18.256;2022-07-22T07:38:59;34.60;60.40
44559;DHT22;30270;40.238;18.256;2022-07-22T07:41:27;34.80;59.80
44559;DHT22;30270;40.238;18.256;2022-07-22T07:43:55;34.80;60.40
44559;DHT22;30270;40.238;18.256;2022-07-22T07:46:23;34.90;60.90
44559;DHT22;30270;40.238;18.256;2022-07-22T07:48:51;35.00;61.50
44559;DHT22;30270;40.238;18.256;2022-07-22T07:51:19;35.00;61.20
44559;DHT22;30270;40.238;18.256;2022-07-22T07:53:46;35.10;62.00
44559;DHT22;30270;40.238;18.256;2022-07-22T07:56:14;35.10;62.00
44559;DHT22;30270;40.238;18.256;2022-07-22T07:58:43;35.20;62.40
44559;DHT22;30270;40.238;18.256;2022-07-22T08:01:17;35.10;62.50
44559;DHT22;30270;40.238;18.256;2022-07-22T08:03:45;35.10;62.60
44559;DHT22;30270;40.238;18.256;2022-07-22T08:06:13;35.10;63.50
44559;DHT22;30270;40.238;18.256;2022-07-22T08:08:41;35.00;63.60
44559;DHT22;30270;40.238;18.256;2022-07-22T08:11:16;35.00;63.10
44559;DHT22;30270;40.238;18.256;2022-07-22T08:13:52;35.00;63.40
44559;DHT22;30270;40.238;18.256;2022-07-22T08:16:37;34.90;63.40
44559;DHT22;30270;40.238;18.256;2022-07-22T08:19:05;35.00;63.00
44559;DHT22;30270;40.238;18.256;2022-07-22T08:21:33;35.10;63.40
44559;DHT22;30270;40.238;18.256;2022-07-22T08:24:17;35.10;62.50
44559;DHT22;30270;40.238;18.256;2022-07-22T08:26:44;35.10;63.20
44559;DHT22;30270;40.238;18.256;2022-07-22T08:29:12;35.20;62.90
44559;DHT22;30270;40.238;18.256;2022-07-22T08:31:40;35.20;62.10
44559;DHT22;30270;40.238;18.256;2022-07-22T08:34:10;35.20;60.90
44559;DHT22;30270;40.238;18.256;2022-07-22T08:36:38;35.30;62.00
44559;DHT22;30270;40.238;18.256;2022-07-22T08:39:06;35.30;62.50
44559;DHT22;30270;40.238;18.256;2022-07-22T08:41:36;35.20;62.40
44559;DHT22;30270;40.238;18.256;2022-07-22T08:44:06;35.30;62.90
44559;DHT22;30270;40.238;18.256;2022-07-22T08:46:35;35.20;63.30
44559;DHT22;30270;40.238;18.256;2022-07-22T08:49:22;35.10;63.50
44559;DHT22;30270;40.238;18.256;2022-07-22T08:52:19;35.00;63.90
44559;DHT22;30270;40.238;18.256;2022-07-22T08:54:49;35.00;64.20
44559;DHT22;30270;40.238;18.256;2022-07-22T08:57:18;34.80;64.50
44559;DHT22;30270;40.238;18.256;2022-07-22T08:59:56;34.80;64.40
44559;DHT22;30270;40.238;18.256;2022-07-22T09:02:26;34.80;64.80
44559;DHT22;30270;40.238;18.256;2022-07-22T09:04:59;34.90;65.10
44559;DHT22;30270;40.238;18.256;2022-07-22T09:10:33;35.00;64.40
44559;DHT22;30270;40.238;18.256;2022-07-22T09:13:10;35.10;64.40
44559;DHT22;30270;40.238;18.256;2022-07-22T09:15:53;35.10;63.30
44559;DHT22;30270;40.238;18.256;2022-07-22T09:19:00;34.90;63.40
44559;DHT22;30270;40.238;18.256;2022-07-22T09:21:54;35.00;63.90
44559;DHT22;30270;40.238;18.256;2022-07-22T09:24:41;35.20;64.40
44559;DHT22;30270;40.238;18.256;2022-07-22T09:27:23;35.20;64.60
44559;DHT22;30270;40.238;18.256;2022-07-22T09:30:17;35.30;64.30
44559;DHT22;30270;40.238;18.256;2022-07-22T09:32:52;35.30;63.20
44559;DHT22;30270;40.238;18.256;2022-07-22T09:35:35;35.30;62.80
44559;DHT22;30270;40.238;18.256;2022-07-22T09:38:05;35.20;63.30
44559;DHT22;30270;40.238;18.256;2022-07-22T09:40:39;35.30;63.30
44559;DHT22;30270;40.238;18.256;2022-07-22T09:43:12;35.20;63.00
44559;DHT22;30270;40.238;18.256;2022-07-22T09:45:55;35.20;62.90
44559;DHT22;30270;40.238;18.256;2022-07-22T09:48:49;35.20;61.90
44559;DHT22;30270;40.238;18.256;2022-07-22T09:51:34;35.20;62.00
44559;DHT22;30270;40.238;18.256;2022-07-22T09:54:11;35.40;61.90
44559;DHT22;30270;40.238;18.256;2022-07-22T09:56:39;35.40;61.70
44559;DHT22;30270;40.238;18.256;2022-07-22T09:59:07;35.40;60.80
44559;DHT22;30270;40.238;18.256;2022-07-22T10:01:43;35.40;61.30
44559;DHT22;30270;40.238;18.256;2022-07-22T10:04:11;35.50;61.70
44559;DHT22;30270;40.238;18.256;2022-07-22T10:06:41;35.50;61.10
44559;DHT22;30270;40.238;18.256;2022-07-22T10:09:17;35.60;61.60
44559;DHT22;30270;40.238;18.256;2022-07-22T10:11:47;35.60;60.80
44559;DHT22;30270;40.238;18.256;2022-07-22T10:14:18;35.60;60.30
44559;DHT22;30270;40.238;18.256;2022-07-22T10:16:51;35.70;59.90
44559;DHT22;30270;40.238;18.256;2022-07-22T10:19:20;35.60;59.40
44559;DHT22;30270;40.238;18.256;2022-07-22T10:21:48;35.50;59.50
44559;DHT22;30270;40.238;18.256;2022-07-22T10:24:16;35.40;58.90
44559;DHT22;30270;40.238;18.256;2022-07-22T10:26:58;35.50;59.60
44559;DHT22;30270;40.238;18.256;2022-07-22T10:29:40;35.50;59.00
44559;DHT22;30270;40.238;18.256;2022-07-22T10:35:19;35.60;59.80
44559;DHT22;30270;40.238;18.256;2022-07-22T10:37:49;35.60;59.70
44559;DHT22;30270;40.238;18.256;2022-07-22T10:45:35;35.60;58.60
44559;DHT22;30270;40.238;18.256;2022-07-22T10:48:07;35.60;58.10
44559;DHT22;30270;40.238;18.256;2022-07-22T10:53:06;35.60;58.60
44559;DHT22;30270;40.238;18.256;2022-07-22T10:55:36;35.50;58.20
44559;DHT22;30270;40.238;18.256;2022-07-22T10:58:40;35.40;58.00
44559;DHT22;30270;40.238;18.256;2022-07-22T11:01:13;35.50;58.10
44559;DHT22;30270;40.238;18.256;2022-07-22T11:03:44;35.50;58.20
44559;DHT22;30270;40.238;18.256;2022-07-22T11:06:26;35.50;59.00
44559;DHT22;30270;40.238;18.256;2022-07-22T11:08:59;35.30;57.80
44559;DHT22;30270;40.238;18.256;2022-07-22T11:11:48;35.30;57.90
44559;DHT22;30270;40.238;18.256;2022-07-22T11:14:29;35.30;58.40
44559;DHT22;30270;40.238;18.256;2022-07-22T11:17:05;35.40;58.90
44559;DHT22;30270;40.238;18.256;2022-07-22T11:19:33;35.20;59.00
44559;DHT22;30270;40.238;18.256;2022-07-22T11:22:03;35.20;58.70
44559;DHT22;30270;40.238;18.256;2022-07-22T11:24:32;35.30;58.90
44559;DHT22;30270;40.238;18.256;2022-07-22T11:27:00;35.30;58.80
44559;DHT22;30270;40.238;18.256;2022-07-22T11:29:34;35.40;58.80
44559;DHT22;30270;40.238;18.256;2022-07-22T11:32:04;35.40;59.00
44559;DHT22;30270;40.238;18.256;2022-07-22T11:34:36;35.30;58.50
44559;DHT22;30270;40.238;18.256;2022-07-22T11:37:04;35.40;59.40
44559;DHT22;30270;40.238;18.256;2022-07-22T11:39:31;35.30;58.60
44559;DHT22;30270;40.238;18.256;2022-07-22T11:42:00;35.40;59.20
44559;DHT22;30270;40.238;18.256;2022-07-22T11:44:30;35.40;59.50
44559;DHT22;30270;40.238;18.256;2022-07-22T11:46:58;35.40;59.50
44559;DHT22;30270;40.238;18.256;2022-07-22T11:49:29;35.40;59.80
44559;DHT22;30270;40.238;18.256;2022-07-22T11:51:57;35.30;59.30
44559;DHT22;30270;40.238;18.256;2022-07-22T11:54:24;35.30;59.30
44559;DHT22;30270;40.238;18.256;2022-07-22T11:56:52;35.30;59.80
44559;DHT22;30270;40.238;18.256;2022-07-22T11:59:23;35.30;59.30
44559;DHT22;30270;40.238;18.256;2022-07-22T12:01:51;35.20;58.50
44559;DHT22;30270;40.238;18.256;2022-07-22T12:04:22;35.20;58.70
44559;DHT22;30270;40.238;18.256;2022-07-22T12:06:52;35.20;59.30
44559;DHT22;30270;40.238;18.256;2022-07-22T12:09:24;35.10;59.40
44559;DHT22;30270;40.238;18.256;2022-07-22T12:11:55;35.20;59.60
44559;DHT22;30270;40.238;18.256;2022-07-22T12:14:30;35.20;59.40
44559;DHT22;30270;40.238;18.256;2022-07-22T12:17:06;35.20;59.70
44559;DHT22;30270;40.238;18.256;2022-07-22T12:19:35;35.10;59.70
44559;DHT22;30270;40.238;18.256;2022-07-22T12:22:05;35.10;59.70
44559;DHT22;30270;40.238;18.256;2022-07-22T12:24:42;35.10;59.90
44559;DHT22;30270;40.238;18.256;2022-07-22T12:27:12;35.10;60.30
44559;DHT22;30270;40.238;18.256;2022-07-22T12:37:19;34.90;61.60
44559;DHT22;30270;40.238;18.256;2022-07-22T12:42:39;34.90;61.70
44559;DHT22;30270;40.238;18.256;2022-07-22T12:45:15;34.90;61.10
44559;DHT22;30270;40.238;18.256;2022-07-22T12:50:20;34.80;61.80
44559;DHT22;30270;40.238;18.256;2022-07-22T12:52:49;34.90;61.70
44559;DHT22;30270;40.238;18.256;2022-07-22T12:55:49;34.80;62.10
44559;DHT22;30270;40.238;18.256;2022-07-22T12:58:19;34.80;63.00
44559;DHT22;30270;40.238;18.256;2022-07-22T13:00:51;34.90;63.50
44559;DHT22;30270;40.238;18.256;2022-07-22T13:03:23;34.80;63.10
44559;DHT22;30270;40.238;18.256;2022-07-22T13:05:56;34.90;63.40
44559;DHT22;30270;40.238;18.256;2022-07-22T13:08:25;34.90;63.70
44559;DHT22;30270;40.238;18.256;2022-07-22T13:10:55;34.80;62.20
44559;DHT22;30270;40.238;18.256;2022-07-22T13:13:23;34.70;63.20
44559;DHT22;30270;40.238;18.256;2022-07-22T13:15:51;34.70;64.10
44559;DHT22;30270;40.238;18.256;2022-07-22T13:18:20;34.70;64.20
44559;DHT22;30270;40.238;18.256;2022-07-22T13:20:49;34.80;63.90
44559;DHT22;30270;40.238;18.256;2022-07-22T13:23:17;34.80;63.60
44559;DHT22;30270;40.238;18.256;2022-07-22T13:25:45;34.80;63.40
44559;DHT22;30270;40.238;18.256;2022-07-22T13:28:13;34.80;63.10
44559;DHT22;30270;40.238;18.256;2022-07-22T13:30:40;34.70;62.90
44559;DHT22;30270;40.238;18.256;2022-07-22T13:33:08;34.70;62.50
44559;DHT22;30270;40.238;18.256;2022-07-22T13:35:36;34.70;63.10
44559;DHT22;30270;40.238;18.256;2022-07-22T13:38:03;34.70;63.00
44559;DHT22;30270;40.238;18.256;2022-07-22T13:40:34;34.70;63.30
44559;DHT22;30270;40.238;18.256;2022-07-22T13:43:12;34.70;63.00
44559;DHT22;30270;40.238;18.256;2022-07-22T13:45:41;34.70;62.60
44559;DHT22;30270;40.238;18.256;2022-07-22T13:48:16;34.80;62.60
44559;DHT22;30270;40.238;18.256;2022-07-22T13:50:49;34.80;62.60
44559;DHT22;30270;40.238;18.256;2022-07-22T13:53:17;34.80;62.40
44559;DHT22;30270;40.238;18.256;2022-07-22T13:55:45;34.90;62.20
44559;DHT22;30270;40.238;18.256;2022-07-22T13:58:12;34.90;62.80
44559;DHT22;30270;40.238;18.256;2022-07-22T14:00:41;34.90;63.30
44559;DHT22;30270;40.238;18.256;2022-07-22T14:03:08;34.90;63.10
44559;DHT22;30270;40.238;18.256;2022-07-22T14:05:36;34.90;63.40
44559;DHT22;30270;40.238;18.256;2022-07-22T14:08:04;34.80;63.20
44559;DHT22;30270;40.238;18.256;2022-07-22T14:10:32;34.70;62.00
44559;DHT22;30270;40.238;18.256;2022-07-22T14:13:00;34.60;62.00
44559;DHT22;30270;40.238;18.256;2022-07-22T14:15:27;34.60;62.20
44559;DHT22;30270;40.238;18.256;2022-07-22T14:17:55;34.60;62.60
44559;DHT22;30270;40.238;18.256;2022-07-22T14:20:23;34.50;63.30
44559;DHT22;30270;40.238;18.256;2022-07-22T14:22:51;34.50;63.90
44559;DHT22;30270;40.238;18.256;2022-07-22T14:25:18;34.50;63.70
44559;DHT22;30270;40.238;18.256;2022-07-22T14:27:47;34.50;63.50
44559;DHT22;30270;40.238;18.256;2022-07-22T14:30:19;34.50;62.70
44559;DHT22;30270;40.238;18.256;2022-07-22T14:32:47;34.50;62.70
44559;DHT22;30270;40.238;18.256;2022-07-22T14:35:14;34.50;63.40
44559;DHT22;30270;40.238;18.256;2022-07-22T14:37:42;34.50;63.70
44559;DHT22;30270;40.238;18.256;2022-07-22T14:40:11;34.50;63.40
44559;DHT22;30270;40.238;18.256;2022-07-22T14:42:39;34.50;63.40
44559;DHT22;30270;40.238;18.256;2022-07-22T14:45:07;34.50;63.00
44559;DHT22;30270;40.238;18.256;2022-07-22T14:47:37;34.40;62.40
44559;DHT22;30270;40.238;18.256;2022-07-22T14:50:06;34.40;62.90
44559;DHT22;30270;40.238;18.256;2022-07-22T14:52:34;34.40;62.80
44559;DHT22;30270;40.238;18.256;2022-07-22T14:55:03;34.30;63.10
44559;DHT22;30270;40.238;18.256;2022-07-22T14:57:30;34.30;63.30
44559;DHT22;30270;40.238;18.256;2022-07-22T14:59:58;34.30;63.00
44559;DHT22;30270;40.238;18.256;2022-07-22T15:02:25;34.30;62.40
44559;DHT22;30270;40.238;18.256;2022-07-22T15:04:53;34.20;62.60
44559;DHT22;30270;40.238;18.256;2022-07-22T15:07:21;34.20;62.80
44559;DHT22;30270;40.238;18.256;2022-07-22T15:09:53;34.30;62.90
44559;DHT22;30270;40.238;18.256;2022-07-22T15:12:20;34.30;62.60
44559;DHT22;30270;40.238;18.256;2022-07-22T15:15:08;34.30;62.90
44559;DHT22;30270;40.238;18.256;2022-07-22T15:17:38;34.20;63.10
44559;DHT22;30270;40.238;18.256;2022-07-22T15:20:06;34.20;62.90
44559;DHT22;30270;40.238;18.256;2022-07-22T15:22:34;34.10;62.90
44559;DHT22;30270;40.238;18.256;2022-07-22T15:25:02;34.10;63.00
44559;DHT22;30270;40.238;18.256;2022-07-22T15:27:30;34.10;63.10
44559;DHT22;30270;40.238;18.256;2022-07-22T15:29:58;34.10;63.30
44559;DHT22;30270;40.238;18.256;2022-07-22T15:32:26;34.10;63.60
44559;DHT22;30270;40.238;18.256;2022-07-22T15:34:53;34.10;63.40
44559;DHT22;30270;40.238;18.256;2022-07-22T15:37:21;34.10;63.60
44559;DHT22;30270;40.238;18.256;2022-07-22T15:39:50;34.10;63.50
44559;DHT22;30270;40.238;18.256;2022-07-22T15:42:18;34.10;63.20
44559;DHT22;30270;40.238;18.256;2022-07-22T15:44:46;34.10;63.50
44559;DHT22;30270;40.238;18.256;2022-07-22T15:47:13;34.00;63.30
44559;DHT22;30270;40.238;18.256;2022-07-22T15:49:41;34.00;63.50
44559;DHT22;30270;40.238;18.256;2022-07-22T15:52:19;34.00;63.50
44559;DHT22;30270;40.238;18.256;2022-07-22T15:54:47;34.00;63.70
44559;DHT22;30270;40.238;18.256;2022-07-22T15:57:18;34.00;63.70
44559;DHT22;30270;40.238;18.256;2022-07-22T16:00:05;33.90;63.60
44559;DHT22;30270;40.238;18.256;2022-07-22T16:02:42;33.90;63.90